sensor_id;sensor_type;location;lat;lon;timestamp;P1;durP1;ratioP1;P2;durP2;ratioP2
73650;SDS011;61944;52.538;6.108;2022-09-09T00:00:01;7.30;;;3.72;;
73650;SDS011;61944;52.538;6.108;2022-09-09T00:02:31;9.05;;;3.70;;
73650;SDS011;61944;52.538;6.108;2022-09-09T00:07:55;4.85;;;3.30;;
73650;SDS011;61944;52.538;6.108;2022-09-09T00:10:28;5.38;;;2.90;;
73650;SDS011;61944;52.538;6.108;2022-09-09T00:15:52;6.75;;;3.78;;
73650;SDS011;61944;52.538;6.108;2022-09-09T00:21:08;6.82;;;3.63;;
73650;SDS011;61944;52.538;6.108;2022-09-09T00:23:43;4.38;;;3.10;;
73650;SDS011;61944;52.538;6.108;2022-09-09T00:31:42;5.90;;;3.00;;
73650;SDS011;61944;52.538;6.108;2022-09-09T00:34:15;7.40;;;3.50;;
73650;SDS011;61944;52.538;6.108;2022-09-09T00:36:46;7.70;;;3.80;;
73650;SDS011;61944;52.538;6.108;2022-09-09T00:39:25;9.73;;;3.17;;
73650;SDS011;61944;52.538;6.108;2022-09-09T00:44:39;5.32;;;2.88;;
73650;SDS011;61944;52.538;6.108;2022-09-09T00:53:09;8.13;;;3.03;;
73650;SDS011;61944;52.538;6.108;2022-09-09T00:55:48;7.35;;;3.00;;
73650;SDS011;61944;52.538;6.108;2022-09-09T00:58:21;3.70;;;2.53;;
73650;SDS011;61944;52.538;6.108;2022-09-09T01:00:51;6.70;;;3.10;;
73650;SDS011;61944;52.538;6.108;2022-09-09T01:03:40;8.68;;;2.83;;
73650;SDS011;61944;52.538;6.108;2022-09-09T01:06:22;5.20;;;2.88;;
73650;SDS011;61944;52.538;6.108;2022-09-09T01:09:10;9.40;;;2.58;;
73650;SDS011;61944;52.538;6.108;2022-09-09T01:17:46;7.50;;;2.88;;
73650;SDS011;61944;52.538;6.108;2022-09-09T01:20:12;5.15;;;2.30;;
73650;SDS011;61944;52.538;6.108;2022-09-09T01:28:28;6.32;;;2.95;;
73650;SDS011;61944;52.538;6.108;2022-09-09T01:30:56;3.65;;;2.35;;
73650;SDS011;61944;52.538;6.108;2022-09-09T01:33:23;8.27;;;3.10;;
73650;SDS011;61944;52.538;6.108;2022-09-09T01:35:54;5.63;;;3.10;;
73650;SDS011;61944;52.538;6.108;2022-09-09T01:38:25;7.32;;;3.45;;
73650;SDS011;61944;52.538;6.108;2022-09-09T01:40:52;7.32;;;3.28;;
73650;SDS011;61944;52.538;6.108;2022-09-09T01:43:19;6.68;;;3.15;;
73650;SDS011;61944;52.538;6.108;2022-09-09T01:45:46;5.43;;;2.72;;
73650;SDS011;61944;52.538;6.108;2022-09-09T01:48:16;5.07;;;3.05;;
73650;SDS011;61944;52.538;6.108;2022-09-09T01:50:42;6.82;;;4.43;;
73650;SDS011;61944;52.538;6.108;2022-09-09T01:53:08;12.15;;;3.40;;
73650;SDS011;61944;52.538;6.108;2022-09-09T01:55:37;6.35;;;3.53;;
73650;SDS011;61944;52.538;6.108;2022-09-09T02:01:11;8.23;;;4.25;;
73650;SDS011;61944;52.538;6.108;2022-09-09T02:03:44;10.15;;;4.90;;
73650;SDS011;61944;52.538;6.108;2022-09-09T02:08:56;5.93;;;3.80;;
73650;SDS011;61944;52.538;6.108;2022-09-09T02:11:23;5.30;;;4.15;;
73650;SDS011;61944;52.538;6.108;2022-09-09T02:13:51;7.70;;;3.72;;
73650;SDS011;61944;52.538;6.108;2022-09-09T02:16:27;3.72;;;3.42;;
73650;SDS011;61944;52.538;6.108;2022-09-09T02:19:00;8.80;;;3.78;;
73650;SDS011;61944;52.538;6.108;2022-09-09T02:21:30;7.90;;;4.25;;
73650;SDS011;61944;52.538;6.108;2022-09-09T02:23:57;5.75;;;3.92;;
73650;SDS011;61944;52.538;6.108;2022-09-09T02:26:25;8.10;;;4.28;;
73650;SDS011;61944;52.538;6.108;2022-09-09T02:28:52;6.72;;;3.47;;
73650;SDS011;61944;52.538;6.108;2022-09-09T02:31:23;6.43;;;3.50;;
73650;SDS011;61944;52.538;6.108;2022-09-09T02:33:59;8.13;;;5.05;;
73650;SDS011;61944;52.538;6.108;2022-09-09T02:36:27;8.18;;;4.05;;
73650;SDS011;61944;52.538;6.108;2022-09-09T02:38:56;8.02;;;3.58;;
73650;SDS011;61944;52.538;6.108;2022-09-09T02:41:43;7.53;;;3.60;;
73650;SDS011;61944;52.538;6.108;2022-09-09T02:44:14;5.75;;;3.28;;
73650;SDS011;61944;52.538;6.108;2022-09-09T02:52:21;7.88;;;3.70;;
73650;SDS011;61944;52.538;6.108;2022-09-09T02:55:11;4.28;;;3.15;;
73650;SDS011;61944;52.538;6.108;2022-09-09T02:58:01;8.93;;;3.30;;
73650;SDS011;61944;52.538;6.108;2022-09-09T03:00:32;6.07;;;3.83;;
73650;SDS011;61944;52.538;6.108;2022-09-09T03:03:00;7.18;;;3.70;;
73650;SDS011;61944;52.538;6.108;2022-09-09T03:05:27;6.32;;;3.83;;
73650;SDS011;61944;52.538;6.108;2022-09-09T03:07:52;7.55;;;3.92;;
73650;SDS011;61944;52.538;6.108;2022-09-09T03:10:18;7.78;;;3.92;;
73650;SDS011;61944;52.538;6.108;2022-09-09T03:12:44;6.22;;;4.18;;
73650;SDS011;61944;52.538;6.108;2022-09-09T03:15:09;9.45;;;4.72;;
73650;SDS011;61944;52.538;6.108;2022-09-09T03:17:35;6.32;;;4.07;;
73650;SDS011;61944;52.538;6.108;2022-09-09T03:20:01;5.65;;;3.70;;
73650;SDS011;61944;52.538;6.108;2022-09-09T03:22:27;7.80;;;4.03;;
73650;SDS011;61944;52.538;6.108;2022-09-09T03:24:53;8.52;;;4.22;;
73650;SDS011;61944;52.538;6.108;2022-09-09T03:27:18;7.43;;;4.95;;
73650;SDS011;61944;52.538;6.108;2022-09-09T03:29:44;5.72;;;3.97;;
73650;SDS011;61944;52.538;6.108;2022-09-09T03:32:10;7.03;;;4.40;;
73650;SDS011;61944;52.538;6.108;2022-09-09T03:34:35;6.75;;;3.90;;
73650;SDS011;61944;52.538;6.108;2022-09-09T03:37:04;9.40;;;5.53;;
73650;SDS011;61944;52.538;6.108;2022-09-09T03:39:30;8.27;;;4.32;;
73650;SDS011;61944;52.538;6.108;2022-09-09T03:41:56;8.18;;;4.38;;
73650;SDS011;61944;52.538;6.108;2022-09-09T03:44:21;8.43;;;4.90;;
73650;SDS011;61944;52.538;6.108;2022-09-09T03:46:46;8.02;;;5.30;;
73650;SDS011;61944;52.538;6.108;2022-09-09T03:49:11;10.98;;;6.85;;
73650;SDS011;61944;52.538;6.108;2022-09-09T03:51:37;8.85;;;4.90;;
73650;SDS011;61944;52.538;6.108;2022-09-09T03:54:06;6.82;;;4.85;;
73650;SDS011;61944;52.538;6.108;2022-09-09T03:56:33;8.38;;;5.47;;
73650;SDS011;61944;52.538;6.108;2022-09-09T03:58:59;8.57;;;5.63;;
73650;SDS011;61944;52.538;6.108;2022-09-09T04:01:25;9.63;;;5.95;;
73650;SDS011;61944;52.538;6.108;2022-09-09T04:03:50;13.55;;;6.05;;
73650;SDS011;61944;52.538;6.108;2022-09-09T04:06:17;10.38;;;4.95;;
73650;SDS011;61944;52.538;6.108;2022-09-09T04:08:42;10.32;;;5.88;;
73650;SDS011;61944;52.538;6.108;2022-09-09T04:11:08;7.47;;;5.20;;
73650;SDS011;61944;52.538;6.108;2022-09-09T04:13:35;11.32;;;5.90;;
73650;SDS011;61944;52.538;6.108;2022-09-09T04:16:05;9.38;;;5.70;;
73650;SDS011;61944;52.538;6.108;2022-09-09T04:18:31;11.13;;;5.88;;
73650;SDS011;61944;52.538;6.108;2022-09-09T04:20:57;16.55;;;5.78;;
73650;SDS011;61944;52.538;6.108;2022-09-09T04:23:23;14.73;;;7.07;;
73650;SDS011;61944;52.538;6.108;2022-09-09T04:25:51;13.55;;;6.60;;
73650;SDS011;61944;52.538;6.108;2022-09-09T04:28:18;12.48;;;7.78;;
73650;SDS011;61944;52.538;6.108;2022-09-09T04:30:48;11.93;;;6.85;;
73650;SDS011;61944;52.538;6.108;2022-09-09T04:33:14;12.13;;;6.03;;
73650;SDS011;61944;52.538;6.108;2022-09-09T04:35:43;12.95;;;5.95;;
73650;SDS011;61944;52.538;6.108;2022-09-09T04:38:13;11.20;;;5.45;;
73650;SDS011;61944;52.538;6.108;2022-09-09T04:40:41;11.07;;;5.97;;
73650;SDS011;61944;52.538;6.108;2022-09-09T04:43:10;8.52;;;5.82;;
73650;SDS011;61944;52.538;6.108;2022-09-09T04:45:36;9.65;;;6.13;;
73650;SDS011;61944;52.538;6.108;2022-09-09T04:48:02;10.82;;;6.13;;
73650;SDS011;61944;52.538;6.108;2022-09-09T04:50:27;13.07;;;6.47;;
73650;SDS011;61944;52.538;6.108;2022-09-09T04:52:53;12.07;;;6.93;;
73650;SDS011;61944;52.538;6.108;2022-09-09T04:55:19;15.73;;;8.27;;
73650;SDS011;61944;52.538;6.108;2022-09-09T04:57:45;10.38;;;6.13;;
73650;SDS011;61944;52.538;6.108;2022-09-09T05:00:13;11.90;;;6.75;;
73650;SDS011;61944;52.538;6.108;2022-09-09T05:02:39;13.90;;;7.55;;
73650;SDS011;61944;52.538;6.108;2022-09-09T05:05:06;13.30;;;6.97;;
73650;SDS011;61944;52.538;6.108;2022-09-09T05:07:31;13.05;;;7.10;;
73650;SDS011;61944;52.538;6.108;2022-09-09T05:09:57;8.65;;;5.75;;
73650;SDS011;61944;52.538;6.108;2022-09-09T05:12:23;12.25;;;7.63;;
73650;SDS011;61944;52.538;6.108;2022-09-09T05:14:52;12.18;;;7.28;;
73650;SDS011;61944;52.538;6.108;2022-09-09T05:17:17;11.73;;;7.38;;
73650;SDS011;61944;52.538;6.108;2022-09-09T05:19:43;14.20;;;7.47;;
73650;SDS011;61944;52.538;6.108;2022-09-09T05:22:09;11.52;;;6.75;;
73650;SDS011;61944;52.538;6.108;2022-09-09T05:24:36;11.80;;;6.05;;
73650;SDS011;61944;52.538;6.108;2022-09-09T05:27:03;13.05;;;6.93;;
73650;SDS011;61944;52.538;6.108;2022-09-09T05:29:29;11.52;;;7.57;;
73650;SDS011;61944;52.538;6.108;2022-09-09T05:31:54;8.75;;;6.03;;
73650;SDS011;61944;52.538;6.108;2022-09-09T05:34:20;10.98;;;6.25;;
73650;SDS011;61944;52.538;6.108;2022-09-09T05:36:45;12.30;;;7.43;;
73650;SDS011;61944;52.538;6.108;2022-09-09T05:39:11;13.90;;;6.20;;
73650;SDS011;61944;52.538;6.108;2022-09-09T05:41:37;7.90;;;6.38;;
73650;SDS011;61944;52.538;6.108;2022-09-09T05:44:02;12.07;;;7.30;;
73650;SDS011;61944;52.538;6.108;2022-09-09T05:46:28;11.30;;;7.57;;
73650;SDS011;61944;52.538;6.108;2022-09-09T05:48:55;12.50;;;6.53;;
73650;SDS011;61944;52.538;6.108;2022-09-09T05:51:21;11.07;;;5.63;;
73650;SDS011;61944;52.538;6.108;2022-09-09T05:53:49;10.68;;;6.40;;
73650;SDS011;61944;52.538;6.108;2022-09-09T05:56:20;11.98;;;5.97;;
73650;SDS011;61944;52.538;6.108;2022-09-09T05:58:53;12.63;;;6.30;;
73650;SDS011;61944;52.538;6.108;2022-09-09T06:01:23;15.80;;;8.40;;
73650;SDS011;61944;52.538;6.108;2022-09-09T06:03:53;9.48;;;5.80;;
73650;SDS011;61944;52.538;6.108;2022-09-09T06:06:23;5.53;;;2.03;;
73650;SDS011;61944;52.538;6.108;2022-09-09T06:08:54;11.60;;;3.67;;
73650;SDS011;61944;52.538;6.108;2022-09-09T06:11:24;10.73;;;4.60;;
73650;SDS011;61944;52.538;6.108;2022-09-09T06:13:51;7.65;;;4.22;;
73650;SDS011;61944;52.538;6.108;2022-09-09T06:16:20;9.50;;;4.35;;
73650;SDS011;61944;52.538;6.108;2022-09-09T06:18:48;10.55;;;4.15;;
73650;SDS011;61944;52.538;6.108;2022-09-09T06:21:18;9.23;;;4.55;;
73650;SDS011;61944;52.538;6.108;2022-09-09T06:23:45;13.95;;;5.75;;
73650;SDS011;61944;52.538;6.108;2022-09-09T06:26:12;8.23;;;4.70;;
73650;SDS011;61944;52.538;6.108;2022-09-09T06:28:40;8.55;;;3.58;;
73650;SDS011;61944;52.538;6.108;2022-09-09T06:31:08;8.38;;;4.45;;
73650;SDS011;61944;52.538;6.108;2022-09-09T06:33:39;9.73;;;4.53;;
73650;SDS011;61944;52.538;6.108;2022-09-09T06:36:10;8.38;;;4.35;;
73650;SDS011;61944;52.538;6.108;2022-09-09T06:38:41;8.43;;;4.90;;
73650;SDS011;61944;52.538;6.108;2022-09-09T06:41:07;7.88;;;5.38;;
73650;SDS011;61944;52.538;6.108;2022-09-09T06:43:34;9.90;;;4.68;;
73650;SDS011;61944;52.538;6.108;2022-09-09T06:46:18;11.35;;;5.80;;
73650;SDS011;61944;52.538;6.108;2022-09-09T06:48:46;9.05;;;4.82;;
73650;SDS011;61944;52.538;6.108;2022-09-09T06:51:16;8.23;;;4.70;;
73650;SDS011;61944;52.538;6.108;2022-09-09T06:53:44;7.13;;;4.05;;
73650;SDS011;61944;52.538;6.108;2022-09-09T06:58:36;17.45;;;3.70;;
73650;SDS011;61944;52.538;6.108;2022-09-09T07:01:05;18.33;;;4.80;;
73650;SDS011;61944;52.538;6.108;2022-09-09T07:03:31;8.88;;;4.53;;
73650;SDS011;61944;52.538;6.108;2022-09-09T07:05:57;9.80;;;5.47;;
73650;SDS011;61944;52.538;6.108;2022-09-09T07:08:24;6.60;;;3.95;;
73650;SDS011;61944;52.538;6.108;2022-09-09T07:10:50;7.57;;;4.22;;
73650;SDS011;61944;52.538;6.108;2022-09-09T07:13:18;18.88;;;4.65;;
73650;SDS011;61944;52.538;6.108;2022-09-09T07:15:51;13.48;;;4.70;;
73650;SDS011;61944;52.538;6.108;2022-09-09T07:18:16;8.52;;;4.72;;
73650;SDS011;61944;52.538;6.108;2022-09-09T07:20:42;11.45;;;4.85;;
73650;SDS011;61944;52.538;6.108;2022-09-09T07:23:07;7.70;;;4.47;;
73650;SDS011;61944;52.538;6.108;2022-09-09T07:25:33;10.35;;;5.00;;
73650;SDS011;61944;52.538;6.108;2022-09-09T07:27:58;6.43;;;3.45;;
73650;SDS011;61944;52.538;6.108;2022-09-09T07:30:23;8.75;;;4.57;;
73650;SDS011;61944;52.538;6.108;2022-09-09T07:32:50;15.68;;;4.43;;
73650;SDS011;61944;52.538;6.108;2022-09-09T07:35:16;11.25;;;3.72;;
73650;SDS011;61944;52.538;6.108;2022-09-09T07:37:42;9.52;;;4.50;;
73650;SDS011;61944;52.538;6.108;2022-09-09T07:40:07;12.48;;;4.10;;
73650;SDS011;61944;52.538;6.108;2022-09-09T07:42:33;15.95;;;4.22;;
73650;SDS011;61944;52.538;6.108;2022-09-09T07:44:58;11.95;;;3.53;;
73650;SDS011;61944;52.538;6.108;2022-09-09T07:47:24;10.07;;;4.13;;
73650;SDS011;61944;52.538;6.108;2022-09-09T07:49:50;8.32;;;3.90;;
73650;SDS011;61944;52.538;6.108;2022-09-09T07:52:15;8.50;;;3.60;;
73650;SDS011;61944;52.538;6.108;2022-09-09T07:54:41;10.65;;;3.85;;
73650;SDS011;61944;52.538;6.108;2022-09-09T07:57:07;10.60;;;3.92;;
73650;SDS011;61944;52.538;6.108;2022-09-09T07:59:32;7.97;;;3.70;;
73650;SDS011;61944;52.538;6.108;2022-09-09T08:01:58;12.25;;;4.57;;
73650;SDS011;61944;52.538;6.108;2022-09-09T08:04:24;13.20;;;4.20;;
73650;SDS011;61944;52.538;6.108;2022-09-09T08:06:52;9.38;;;3.67;;
73650;SDS011;61944;52.538;6.108;2022-09-09T08:09:20;12.85;;;5.63;;
73650;SDS011;61944;52.538;6.108;2022-09-09T08:11:46;13.05;;;5.30;;
73650;SDS011;61944;52.538;6.108;2022-09-09T08:14:12;11.40;;;4.43;;
73650;SDS011;61944;52.538;6.108;2022-09-09T08:16:39;14.02;;;5.70;;
73650;SDS011;61944;52.538;6.108;2022-09-09T08:19:06;11.57;;;5.15;;
73650;SDS011;61944;52.538;6.108;2022-09-09T08:21:33;16.50;;;5.03;;
73650;SDS011;61944;52.538;6.108;2022-09-09T08:24:01;13.73;;;4.75;;
73650;SDS011;61944;52.538;6.108;2022-09-09T08:26:28;10.20;;;4.57;;
73650;SDS011;61944;52.538;6.108;2022-09-09T08:28:56;18.73;;;6.10;;
73650;SDS011;61944;52.538;6.108;2022-09-09T08:31:33;10.18;;;4.10;;
73650;SDS011;61944;52.538;6.108;2022-09-09T08:34:00;19.15;;;5.05;;
73650;SDS011;61944;52.538;6.108;2022-09-09T08:36:28;18.35;;;5.47;;
73650;SDS011;61944;52.538;6.108;2022-09-09T08:38:56;12.82;;;4.85;;
73650;SDS011;61944;52.538;6.108;2022-09-09T08:57:37;15.77;;;4.90;;
73650;SDS011;61944;52.538;6.108;2022-09-09T09:00:04;15.35;;;4.75;;
73650;SDS011;61944;52.538;6.108;2022-09-09T09:10:47;10.73;;;3.53;;
73650;SDS011;61944;52.538;6.108;2022-09-09T09:13:18;16.40;;;4.05;;
73650;SDS011;61944;52.538;6.108;2022-09-09T09:15:53;14.75;;;4.55;;
73650;SDS011;61944;52.538;6.108;2022-09-09T09:18:23;11.73;;;3.80;;
73650;SDS011;61944;52.538;6.108;2022-09-09T09:20:50;11.32;;;3.95;;
73650;SDS011;61944;52.538;6.108;2022-09-09T09:23:33;13.13;;;4.63;;
73650;SDS011;61944;52.538;6.108;2022-09-09T09:26:09;13.32;;;4.57;;
73650;SDS011;61944;52.538;6.108;2022-09-09T09:28:36;12.18;;;4.22;;
73650;SDS011;61944;52.538;6.108;2022-09-09T09:36:09;7.50;;;3.90;;
73650;SDS011;61944;52.538;6.108;2022-09-09T09:38:37;14.98;;;3.75;;
73650;SDS011;61944;52.538;6.108;2022-09-09T09:41:04;17.02;;;3.90;;
73650;SDS011;61944;52.538;6.108;2022-09-09T09:43:31;12.30;;;3.28;;
73650;SDS011;61944;52.538;6.108;2022-09-09T09:45:59;14.10;;;4.15;;
73650;SDS011;61944;52.538;6.108;2022-09-09T09:48:25;6.95;;;3.65;;
73650;SDS011;61944;52.538;6.108;2022-09-09T09:50:55;9.77;;;3.08;;
73650;SDS011;61944;52.538;6.108;2022-09-09T09:53:24;11.30;;;4.68;;
73650;SDS011;61944;52.538;6.108;2022-09-09T09:58:33;18.02;;;4.30;;
73650;SDS011;61944;52.538;6.108;2022-09-09T10:01:22;14.23;;;4.10;;
73650;SDS011;61944;52.538;6.108;2022-09-09T10:04:00;9.10;;;3.53;;
73650;SDS011;61944;52.538;6.108;2022-09-09T10:06:34;13.35;;;3.78;;
73650;SDS011;61944;52.538;6.108;2022-09-09T10:09:02;10.07;;;3.22;;
73650;SDS011;61944;52.538;6.108;2022-09-09T10:11:44;16.30;;;4.35;;
73650;SDS011;61944;52.538;6.108;2022-09-09T10:20:04;12.52;;;3.25;;
73650;SDS011;61944;52.538;6.108;2022-09-09T10:22:36;7.70;;;3.40;;
73650;SDS011;61944;52.538;6.108;2022-09-09T10:25:21;13.63;;;3.75;;
73650;SDS011;61944;52.538;6.108;2022-09-09T10:33:38;8.85;;;3.55;;
73650;SDS011;61944;52.538;6.108;2022-09-09T10:36:22;16.50;;;3.92;;
73650;SDS011;61944;52.538;6.108;2022-09-09T10:39:33;9.95;;;4.05;;
73650;SDS011;61944;52.538;6.108;2022-09-09T10:41:42;9.50;;;3.83;;
73650;SDS011;61944;52.538;6.108;2022-09-09T10:44:18;17.05;;;3.72;;
73650;SDS011;61944;52.538;6.108;2022-09-09T10:52:32;9.85;;;3.80;;
73650;SDS011;61944;52.538;6.108;2022-09-09T10:55:20;12.43;;;4.18;;
73650;SDS011;61944;52.538;6.108;2022-09-09T10:57:51;9.98;;;3.30;;
73650;SDS011;61944;52.538;6.108;2022-09-09T11:00:30;8.57;;;3.85;;
73650;SDS011;61944;52.538;6.108;2022-09-09T11:03:20;14.15;;;3.38;;
73650;SDS011;61944;52.538;6.108;2022-09-09T11:05:52;10.88;;;3.55;;
73650;SDS011;61944;52.538;6.108;2022-09-09T11:08:22;11.53;;;3.10;;
73650;SDS011;61944;52.538;6.108;2022-09-09T11:16:33;10.18;;;4.20;;
73650;SDS011;61944;52.538;6.108;2022-09-09T11:19:28;14.43;;;2.92;;
73650;SDS011;61944;52.538;6.108;2022-09-09T11:22:03;10.90;;;3.50;;
73650;SDS011;61944;52.538;6.108;2022-09-09T11:24:38;10.32;;;3.33;;
73650;SDS011;61944;52.538;6.108;2022-09-09T11:27:15;13.43;;;3.03;;
73650;SDS011;61944;52.538;6.108;2022-09-09T11:37:53;9.30;;;2.80;;
73650;SDS011;61944;52.538;6.108;2022-09-09T11:40:31;6.63;;;3.08;;
73650;SDS011;61944;52.538;6.108;2022-09-09T11:45:35;9.20;;;3.13;;
73650;SDS011;61944;52.538;6.108;2022-09-09T11:48:02;13.45;;;4.57;;
73650;SDS011;61944;52.538;6.108;2022-09-09T11:50:33;12.98;;;4.43;;
73650;SDS011;61944;52.538;6.108;2022-09-09T11:53:06;11.25;;;3.15;;
73650;SDS011;61944;52.538;6.108;2022-09-09T11:55:45;9.73;;;2.83;;
73650;SDS011;61944;52.538;6.108;2022-09-09T12:00:38;7.57;;;3.10;;
73650;SDS011;61944;52.538;6.108;2022-09-09T12:05:53;14.90;;;3.58;;
73650;SDS011;61944;52.538;6.108;2022-09-09T12:08:23;10.85;;;4.53;;
73650;SDS011;61944;52.538;6.108;2022-09-09T12:10:54;6.43;;;3.50;;
73650;SDS011;61944;52.538;6.108;2022-09-09T12:13:22;9.18;;;2.45;;
73650;SDS011;61944;52.538;6.108;2022-09-09T12:15:56;8.63;;;2.72;;
73650;SDS011;61944;52.538;6.108;2022-09-09T12:18:36;6.53;;;2.40;;
73650;SDS011;61944;52.538;6.108;2022-09-09T12:23:52;10.80;;;2.47;;
73650;SDS011;61944;52.538;6.108;2022-09-09T12:34:40;11.20;;;3.00;;
73650;SDS011;61944;52.538;6.108;2022-09-09T12:37:21;13.55;;;3.42;;
73650;SDS011;61944;52.538;6.108;2022-09-09T12:39:59;14.40;;;4.40;;
73650;SDS011;61944;52.538;6.108;2022-09-09T12:42:27;11.65;;;3.88;;
73650;SDS011;61944;52.538;6.108;2022-09-09T12:45:00;8.35;;;3.53;;
73650;SDS011;61944;52.538;6.108;2022-09-09T12:50:00;9.68;;;3.40;;
73650;SDS011;61944;52.538;6.108;2022-09-09T12:52:30;18.95;;;3.15;;
73650;SDS011;61944;52.538;6.108;2022-09-09T12:55:02;9.43;;;3.70;;
73650;SDS011;61944;52.538;6.108;2022-09-09T12:57:33;12.75;;;3.40;;
73650;SDS011;61944;52.538;6.108;2022-09-09T13:00:05;7.45;;;3.10;;
73650;SDS011;61944;52.538;6.108;2022-09-09T13:03:00;11.07;;;3.00;;
73650;SDS011;61944;52.538;6.108;2022-09-09T13:05:28;11.48;;;2.88;;
73650;SDS011;61944;52.538;6.108;2022-09-09T13:08:04;9.60;;;3.10;;
73650;SDS011;61944;52.538;6.108;2022-09-09T13:10:47;10.48;;;2.88;;
73650;SDS011;61944;52.538;6.108;2022-09-09T13:13:21;7.68;;;2.38;;
73650;SDS011;61944;52.538;6.108;2022-09-09T13:15:49;9.02;;;2.55;;
73650;SDS011;61944;52.538;6.108;2022-09-09T13:18:17;10.77;;;2.53;;
73650;SDS011;61944;52.538;6.108;2022-09-09T13:20:48;7.13;;;2.78;;
73650;SDS011;61944;52.538;6.108;2022-09-09T13:23:15;7.32;;;2.88;;
73650;SDS011;61944;52.538;6.108;2022-09-09T13:26:06;7.35;;;2.60;;
73650;SDS011;61944;52.538;6.108;2022-09-09T13:28:32;7.50;;;2.35;;
73650;SDS011;61944;52.538;6.108;2022-09-09T13:33:44;7.30;;;2.33;;
73650;SDS011;61944;52.538;6.108;2022-09-09T13:36:10;7.28;;;2.03;;
73650;SDS011;61944;52.538;6.108;2022-09-09T13:38:38;6.85;;;1.83;;
73650;SDS011;61944;52.538;6.108;2022-09-09T13:41:21;10.90;;;2.20;;
73650;SDS011;61944;52.538;6.108;2022-09-09T13:43:49;4.95;;;2.63;;
73650;SDS011;61944;52.538;6.108;2022-09-09T13:46:35;5.82;;;2.30;;
73650;SDS011;61944;52.538;6.108;2022-09-09T13:54:02;7.68;;;2.28;;
73650;SDS011;61944;52.538;6.108;2022-09-09T13:56:31;4.07;;;1.80;;
73650;SDS011;61944;52.538;6.108;2022-09-09T13:59:00;6.40;;;2.05;;
73650;SDS011;61944;52.538;6.108;2022-09-09T14:01:26;4.68;;;1.80;;
73650;SDS011;61944;52.538;6.108;2022-09-09T14:03:52;5.05;;;2.08;;
73650;SDS011;61944;52.538;6.108;2022-09-09T14:06:18;7.82;;;2.25;;
73650;SDS011;61944;52.538;6.108;2022-09-09T14:08:43;9.52;;;2.53;;
73650;SDS011;61944;52.538;6.108;2022-09-09T14:11:11;10.00;;;3.17;;
73650;SDS011;61944;52.538;6.108;2022-09-09T14:13:37;9.80;;;2.70;;
73650;SDS011;61944;52.538;6.108;2022-09-09T14:16:03;7.70;;;2.45;;
73650;SDS011;61944;52.538;6.108;2022-09-09T14:18:28;9.30;;;2.60;;
73650;SDS011;61944;52.538;6.108;2022-09-09T14:20:54;7.57;;;3.13;;
73650;SDS011;61944;52.538;6.108;2022-09-09T14:23:19;7.65;;;2.78;;
73650;SDS011;61944;52.538;6.108;2022-09-09T14:25:46;7.85;;;2.90;;
73650;SDS011;61944;52.538;6.108;2022-09-09T14:28:12;6.15;;;2.95;;
73650;SDS011;61944;52.538;6.108;2022-09-09T14:30:42;8.45;;;2.08;;
73650;SDS011;61944;52.538;6.108;2022-09-09T14:33:09;10.93;;;3.42;;
73650;SDS011;61944;52.538;6.108;2022-09-09T14:35:36;7.07;;;2.58;;
73650;SDS011;61944;52.538;6.108;2022-09-09T14:38:03;7.35;;;2.30;;
73650;SDS011;61944;52.538;6.108;2022-09-09T14:40:29;8.35;;;2.80;;
73650;SDS011;61944;52.538;6.108;2022-09-09T14:42:54;6.05;;;2.13;;
73650;SDS011;61944;52.538;6.108;2022-09-09T14:45:21;5.97;;;2.03;;
73650;SDS011;61944;52.538;6.108;2022-09-09T14:47:49;8.73;;;2.53;;
73650;SDS011;61944;52.538;6.108;2022-09-09T14:50:14;9.52;;;2.53;;
73650;SDS011;61944;52.538;6.108;2022-09-09T14:52:39;8.10;;;2.28;;
73650;SDS011;61944;52.538;6.108;2022-09-09T14:55:05;8.52;;;2.65;;
73650;SDS011;61944;52.538;6.108;2022-09-09T14:57:31;9.15;;;3.85;;
73650;SDS011;61944;52.538;6.108;2022-09-09T14:59:56;8.00;;;3.38;;
73650;SDS011;61944;52.538;6.108;2022-09-09T15:02:22;4.15;;;2.10;;
73650;SDS011;61944;52.538;6.108;2022-09-09T15:04:47;7.63;;;2.65;;
73650;SDS011;61944;52.538;6.108;2022-09-09T15:07:14;6.90;;;2.95;;
73650;SDS011;61944;52.538;6.108;2022-09-09T15:09:40;5.55;;;2.78;;
73650;SDS011;61944;52.538;6.108;2022-09-09T15:12:05;11.30;;;3.58;;
73650;SDS011;61944;52.538;6.108;2022-09-09T15:14:31;8.65;;;2.90;;
73650;SDS011;61944;52.538;6.108;2022-09-09T15:16:56;7.93;;;3.30;;
73650;SDS011;61944;52.538;6.108;2022-09-09T15:19:22;8.05;;;3.58;;
73650;SDS011;61944;52.538;6.108;2022-09-09T15:21:47;10.65;;;2.97;;
73650;SDS011;61944;52.538;6.108;2022-09-09T15:24:12;8.13;;;3.35;;
73650;SDS011;61944;52.538;6.108;2022-09-09T15:26:38;4.70;;;2.67;;
73650;SDS011;61944;52.538;6.108;2022-09-09T15:29:04;7.85;;;3.10;;
73650;SDS011;61944;52.538;6.108;2022-09-09T15:31:30;7.05;;;3.33;;
73650;SDS011;61944;52.538;6.108;2022-09-09T15:33:57;5.85;;;3.13;;
73650;SDS011;61944;52.538;6.108;2022-09-09T15:36:27;7.80;;;3.92;;
73650;SDS011;61944;52.538;6.108;2022-09-09T15:38:55;6.05;;;3.15;;
73650;SDS011;61944;52.538;6.108;2022-09-09T15:41:21;6.05;;;3.45;;
73650;SDS011;61944;52.538;6.108;2022-09-09T15:43:51;12.63;;;5.20;;
73650;SDS011;61944;52.538;6.108;2022-09-09T15:48:45;5.00;;;2.00;;
73650;SDS011;61944;52.538;6.108;2022-09-09T15:51:11;10.80;;;2.80;;
73650;SDS011;61944;52.538;6.108;2022-09-09T15:53:37;6.80;;;2.92;;
73650;SDS011;61944;52.538;6.108;2022-09-09T15:56:04;6.88;;;2.70;;
73650;SDS011;61944;52.538;6.108;2022-09-09T15:58:33;7.30;;;2.58;;
73650;SDS011;61944;52.538;6.108;2022-09-09T16:01:04;8.23;;;2.50;;
73650;SDS011;61944;52.538;6.108;2022-09-09T16:03:35;8.63;;;2.90;;
73650;SDS011;61944;52.538;6.108;2022-09-09T16:06:05;5.68;;;2.67;;
73650;SDS011;61944;52.538;6.108;2022-09-09T16:08:52;5.45;;;1.98;;
73650;SDS011;61944;52.538;6.108;2022-09-09T16:11:21;6.30;;;2.55;;
73650;SDS011;61944;52.538;6.108;2022-09-09T16:13:48;9.00;;;2.45;;
73650;SDS011;61944;52.538;6.108;2022-09-09T16:16:16;6.85;;;2.42;;
73650;SDS011;61944;52.538;6.108;2022-09-09T16:18:51;5.88;;;2.10;;
73650;SDS011;61944;52.538;6.108;2022-09-09T16:21:26;6.05;;;2.88;;
73650;SDS011;61944;52.538;6.108;2022-09-09T16:23:57;5.50;;;2.40;;
73650;SDS011;61944;52.538;6.108;2022-09-09T16:26:24;6.18;;;3.28;;
73650;SDS011;61944;52.538;6.108;2022-09-09T16:28:50;8.95;;;2.22;;
73650;SDS011;61944;52.538;6.108;2022-09-09T16:31:19;6.78;;;2.97;;
73650;SDS011;61944;52.538;6.108;2022-09-09T16:33:46;7.15;;;3.72;;
73650;SDS011;61944;52.538;6.108;2022-09-09T16:36:14;11.63;;;7.03;;
73650;SDS011;61944;52.538;6.108;2022-09-09T16:38:41;14.30;;;6.85;;
73650;SDS011;61944;52.538;6.108;2022-09-09T16:41:08;6.97;;;4.38;;
73650;SDS011;61944;52.538;6.108;2022-09-09T16:43:35;24.65;;;9.15;;
73650;SDS011;61944;52.538;6.108;2022-09-09T16:46:01;20.25;;;10.07;;
73650;SDS011;61944;52.538;6.108;2022-09-09T16:48:32;19.58;;;9.10;;
73650;SDS011;61944;52.538;6.108;2022-09-09T16:51:05;17.73;;;6.32;;
73650;SDS011;61944;52.538;6.108;2022-09-09T16:53:32;11.05;;;7.03;;
73650;SDS011;61944;52.538;6.108;2022-09-09T16:55:58;9.52;;;5.80;;
73650;SDS011;61944;52.538;6.108;2022-09-09T16:58:29;10.60;;;5.03;;
73650;SDS011;61944;52.538;6.108;2022-09-09T17:00:58;9.00;;;4.65;;
73650;SDS011;61944;52.538;6.108;2022-09-09T17:03:24;9.23;;;4.32;;
73650;SDS011;61944;52.538;6.108;2022-09-09T17:05:50;10.27;;;4.55;;
73650;SDS011;61944;52.538;6.108;2022-09-09T17:08:15;10.05;;;4.30;;
73650;SDS011;61944;52.538;6.108;2022-09-09T17:10:41;10.32;;;4.35;;
73650;SDS011;61944;52.538;6.108;2022-09-09T17:13:07;11.50;;;4.38;;
73650;SDS011;61944;52.538;6.108;2022-09-09T17:15:33;12.85;;;3.65;;
73650;SDS011;61944;52.538;6.108;2022-09-09T17:17:59;20.95;;;5.82;;